This is the latest recevied weather packets stored in our database for station/object KG4GJX. If no packets are shown the sender has not sent any weather packets the latest 1 day(s).
| Time | Temp. | Humidity | Pressure | Rain* | Wind** | Luminosity | Snow |
|---|---|---|---|---|---|---|---|
| 1777970323 | 12.22° C | 87% | 1012.8 hPa | 0 mm | 0 m/s | - | - |
| 1777969661 | 12.22° C | 86% | 1013.2 hPa | 0 mm | 0 m/s | - | - |
| 1777968999 | 12.22° C | 86% | 1013.2 hPa | 0 mm | 0 m/s | - | - |
| 1777968336 | 12.22° C | 86% | 1013.2 hPa | 0 mm | 0 m/s | - | - |
| 1777967674 | 12.22° C | 86% | 1013.2 hPa | 0 mm | 0 m/s | - | - |
| 1777967011 | 11.67° C | 88% | 1013.2 hPa | 0 mm | 0 m/s | - | - |
| 1777966349 | 11.67° C | 90% | 1013.2 hPa | 0 mm | 0 m/s | - | - |
| 1777965687 | 11.67° C | 91% | 1013.2 hPa | 0 mm | 0.45 m/s, 180° | - | - |
| 1777965024 | 11.67° C | 88% | 1013.2 hPa | 0 mm | 0 m/s | - | - |
| 1777964362 | 12.22° C | 87% | 1013.2 hPa | 0 mm | 0 m/s | - | - |
| 1777963700 | 12.78° C | 85% | 1013.2 hPa | 0 mm | 0 m/s | - | - |
| 1777963037 | 13.33° C | 81% | 1013.2 hPa | 0 mm | 0 m/s | - | - |
| 1777962375 | 13.89° C | 77% | 1013.5 hPa | 0 mm | 0 m/s | - | - |
| 1777961712 | 14.44° C | 74% | 1013.5 hPa | 0 mm | 0 m/s | - | - |
| 1777961050 | 15° C | 71% | 1013.2 hPa | 0 mm | 0 m/s | - | - |
| 1777960388 | 15.56° C | 69% | 1013.2 hPa | 0 mm | 0 m/s | - | - |
| 1777959725 | 15.56° C | 69% | 1013.2 hPa | 0 mm | 0 m/s | - | - |
| 1777959063 | 16.11° C | 68% | 1013.2 hPa | 0 mm | 1.79 m/s, 158° | - | - |
| 1777958400 | 16.11° C | 69% | 1013.2 hPa | 0 mm | 0.89 m/s, 171° | - | - |
| 1777957738 | 16.11° C | 70% | 1013.2 hPa | 0 mm | 1.34 m/s, 182° | - | - |
| 1777957076 | 16.11° C | 70% | 1013.2 hPa | 0 mm | 0.89 m/s, 164° | - | - |
| 1777956413 | 15.56° C | 72% | 1013.2 hPa | 0 mm | 0.45 m/s, 143° | - | - |
| 1777955751 | 15° C | 76% | 1013.2 hPa | 0 mm | 0.45 m/s, 149° | - | - |
| 1777955088 | 13.89° C | 82% | 1013.2 hPa | 0 mm | 0.45 m/s, 169° | - | - |
| 1777954426 | 13.89° C | 84% | 1013.2 hPa | 0 mm | 0.89 m/s, 195° | - | - |
* Rain latest hour (hover to see other rain measurements)
** Current wind speed in m/s (hover to see current wind gust speed)